Flight Track Log - Related Links

Times and Time Zones

All times are in EDT time to prevent confusion due to time zone crossing. See the N521PM flight status page for this flight to view local times or setup timezone preferences in your user account.


Time Position Orientation Groundspeed Altitude Reporting Facility
EDT Latitude Longitude Course Direction KTS MPH feet Rate Location/Type
Sat 06:08:28 PM 32.8833 -97.0500 257° West 138 159 1,100  Level Dallas / Fort Worth TRACON
Sat 06:09:59 PM 32.8667 -97.1333 257° West 232 267 2,100 874 Climbing Dallas / Fort Worth TRACON
Sat 06:10:59 PM 32.8500 -97.2000 253° West 220 253 3,300 1,053 Climbing Dallas / Fort Worth TRACON
Sat 06:11:53 PM 32.8500 -97.2667 270° West 218 251 4,100 400 Climbing Dallas / Fort Worth TRACON
Sat 06:12:59 PM 32.9167 -97.3167 328° Northwest 233 268 4,100 -45 Level Dallas / Fort Worth TRACON
Sat 06:14:05 PM 32.9667 -97.3500 331° Northwest 230 265 4,000 -50 Descending Dallas / Fort Worth TRACON
Sat 06:14:59 PM 33.0333 -97.3833 337° Northwest 229 264 4,000  Level Dallas / Fort Worth TRACON
Sat 06:15:53 PM 33.0833 -97.3667 16° North 223 257 4,000  Level Dallas / Fort Worth TRACON
Sat 06:17:05 PM 33.1500 -97.3333 23° Northeast 224 258 4,000 765 Level Dallas / Fort Worth TRACON
Sat 06:19:09 PM 33.2528 -97.2967 17° North 201 231 6,500 1,207 Climbing Fort Worth Center
Sat 06:20:09 PM 33.3031 -97.2767 18° North 174 200 7,700 1,250 Climbing Fort Worth Center
Sat 06:21:09 PM 33.3531 -97.2642 12° North 181 208 9,000 1,300 Climbing Fort Worth Center
Sat 06:22:09 PM 33.4053 -97.2442 18° North 181 208 10,300 1,150 Climbing Fort Worth Center
Sat 06:23:09 PM 33.4575 -97.2292 13° North 186 214 11,300 1,100 Climbing Fort Worth Center
Sat 06:24:09 PM 33.5136 -97.2042 20° North 193 222 12,500 1,050 Climbing Fort Worth Center
Sat 06:25:09 PM 33.5719 -97.1742 23° Northeast 213 245 13,400 950 Climbing Fort Worth Center
Sat 06:26:09 PM 33.6264 -97.1442 25° Northeast 213 245 14,400 1,000 Climbing Fort Worth Center
Sat 06:27:09 PM 33.6825 -97.1189 21° North 213 245 15,400 908 Climbing Fort Worth Center
Sat 06:28:08 PM 33.7306 -97.0739 38° Northeast 213 245 16,200 900 Climbing Fort Worth Center
Sat 06:29:09 PM 33.7678 -97.0111 54° Northeast 218 251 17,200 843 Climbing Fort Worth Center
Sat 06:30:09 PM 33.8114 -96.9561 46° Northeast 232 267 17,900 850 Climbing Fort Worth Center
Sat 06:31:09 PM 33.8572 -96.8958 48° Northeast 238 274 18,900 850 Climbing Fort Worth Center
Sat 06:32:09 PM 33.9008 -96.8381 48° Northeast 238 274 19,600 800 Climbing Fort Worth Center
Sat 06:33:09 PM 33.9442 -96.7800 48° Northeast 238 274 20,500 800 Climbing Fort Worth Center
Sat 06:34:09 PM 33.9878 -96.7222 48° Northeast 238 274 21,200 700 Climbing Fort Worth Center
Sat 06:35:09 PM 34.0292 -96.6617 50° Northeast 238 274 21,900 700 Climbing Fort Worth Center
Sat 06:36:09 PM 34.0747 -96.6036 47° Northeast 238 274 22,600 655 Climbing Fort Worth Center
Sat 06:37:08 PM 34.1078 -96.5531 52° Northeast 238 274 23,200 550 Climbing Fort Worth Center
Sat 06:38:09 PM 34.1511 -96.4925 49° Northeast 232 267 23,700 496 Climbing Fort Worth Center
Sat 06:39:09 PM 34.1967 -96.4367 45° Northeast 232 267 24,200 500 Climbing Fort Worth Center
Sat 06:40:09 PM 34.2419 -96.3733 49° Northeast 242 278 24,700 403 Climbing Fort Worth Center
Sat 06:41:08 PM 34.2853 -96.3075 51° Northeast 237 273 25,000 202 Climbing Fort Worth Center
Sat 06:42:08 PM 34.3347 -96.2414 48° Northeast 243 280 25,100 50 Climbing Fort Worth Center
Sat 06:43:08 PM 34.3822 -96.1756 49° Northeast 243 280 25,100  Level Fort Worth Center
Sat 06:44:08 PM 34.4358 -96.1042 48° Northeast 261 300 25,100  Level Fort Worth Center
Sat 06:45:08 PM 34.4869 -96.0303 50° Northeast 274 315 25,100  Level Fort Worth Center
Sat 06:46:08 PM 34.5383 -95.9589 49° Northeast 274 315 25,100  Level Fort Worth Center
Sat 06:47:08 PM 34.5897 -95.8850 50° Northeast 280 322 25,100  Level Fort Worth Center
Sat 06:48:09 PM 34.6453 -95.8133 47° Northeast 280 322 25,100  Level Fort Worth Center
Sat 06:49:08 PM 34.6964 -95.7392 50° Northeast 286 329 25,100  Level Fort Worth Center
Sat 06:50:08 PM 34.7536 -95.6569 50° Northeast 286 329 25,100  Level Fort Worth Center
Sat 06:51:08 PM 34.8069 -95.5825 49° Northeast 286 329 25,100  Level Fort Worth Center
Sat 06:53:05 PM 34.9100 -95.4444 48° Northeast 300 345 25,100  Level Memphis Center
Sat 06:54:05 PM 34.9631 -95.3692 49° Northeast 300 345 25,100  Level Memphis Center
Sat 06:55:05 PM 35.0158 -95.2961 49° Northeast 300 345 25,100  Level Memphis Center
Sat 06:56:05 PM 35.0692 -95.2181 50° Northeast 295 339 25,100  Level Memphis Center
Sat 06:57:05 PM 35.1222 -95.1425 49° Northeast 295 339 25,100  Level Memphis Center
Sat 06:58:05 PM 35.1750 -95.0667 50° Northeast 295 339 25,100  Level Memphis Center
Sat 06:59:05 PM 35.2278 -94.9933 49° Northeast 295 339 25,100  Level Memphis Center
Sat 07:00:05 PM 35.2786 -94.9200 50° Northeast 290 334 25,100  Level Memphis Center
Sat 07:01:05 PM 35.3314 -94.8439 50° Northeast 290 334 25,100  Level Memphis Center
Sat 07:02:05 PM 35.3819 -94.7703 50° Northeast 295 339 25,100  Level Memphis Center
Sat 07:03:05 PM 35.4325 -94.6964 50° Northeast 290 334 25,100  Level Memphis Center
Sat 07:04:05 PM 35.4853 -94.6228 49° Northeast 290 334 25,100  Level Memphis Center
Sat 07:05:05 PM 35.5356 -94.5489 50° Northeast 285 328 25,100  Level Memphis Center
Sat 07:06:05 PM 35.5839 -94.4747 51° Northeast 285 328 25,100  Level Memphis Center
Sat 07:07:05 PM 35.6364 -94.4031 48° Northeast 278 320 25,100  Level Memphis Center
Sat 07:08:05 PM 35.6867 -94.3289 50° Northeast 278 320 25,100  Level Memphis Center
Sat 07:09:05 PM 35.7392 -94.2547 49° Northeast 278 320 25,100  Level Memphis Center
Sat 07:10:05 PM 35.7872 -94.1828 51° Northeast 283 326 25,100  Level Memphis Center
Sat 07:11:05 PM 35.8353 -94.1108 51° Northeast 278 320 25,100  Level Memphis Center
Sat 07:12:05 PM 35.8900 -94.0261 51° Northeast 278 320 25,100  Level Memphis Center
Sat 07:13:05 PM 35.9422 -93.9542 48° Northeast 278 320 25,100  Level Memphis Center
Sat 07:14:05 PM 35.9922 -93.8794 50° Northeast 273 314 25,100  Level Memphis Center
Sat 07:15:05 PM 36.0422 -93.8044 50° Northeast 273 314 25,100  Level Memphis Center
Sat 07:16:05 PM 36.0922 -93.7322 49° Northeast 273 314 25,100  Level Memphis Center
Sat 07:17:05 PM 36.1400 -93.6594 51° Northeast 279 321 25,100  Level Memphis Center
Sat 07:18:05 PM 36.1919 -93.5844 49° Northeast 279 321 25,100  Level Memphis Center
Sat 07:19:05 PM 36.2397 -93.5092 52° Northeast 279 321 25,100  Level Memphis Center
Sat 07:20:05 PM 36.2894 -93.4364 50° Northeast 274 315 25,100  Level Memphis Center
Sat 07:21:05 PM 36.3392 -93.3636 50° Northeast 274 315 25,100  Level Memphis Center
Sat 07:22:05 PM 36.3869 -93.2906 51° Northeast 274 315 25,100  Level Memphis Center
Sat 07:22:38 PM 36.4072 -93.2594 51° Northeast 278 320 25,100  Level Kansas City Center
Sat 07:23:39 PM 36.4558 -93.1861 50° Northeast 277 319 25,100  Level Kansas City Center
Sat 07:24:40 PM 36.5033 -93.1147 50° Northeast 274 315 25,100  Level Kansas City Center
Sat 07:25:42 PM 36.5506 -93.0414 51° Northeast 272 313 25,100  Level Kansas City Center
Sat 07:26:43 PM 36.6078 -92.9544 51° Northeast 270 311 25,100  Level Kansas City Center
Sat 07:27:46 PM 36.6542 -92.8831 51° Northeast 267 307 25,100  Level Kansas City Center
Sat 07:28:46 PM 36.7022 -92.8119 50° Northeast 267 307 25,100  Level Kansas City Center
Sat 07:29:47 PM 36.7506 -92.7394 50° Northeast 269 310 25,100  Level Kansas City Center
Sat 07:30:51 PM 36.7975 -92.6667 51° Northeast 269 310 25,100  Level Kansas City Center
Sat 07:31:53 PM 36.8447 -92.5939 51° Northeast 269 310 25,100  Level Kansas City Center
Sat 07:32:53 PM 36.8911 -92.5219 51° Northeast 268 308 25,100  Level Kansas City Center
Sat 07:33:54 PM 36.9389 -92.4503 50° Northeast 269 310 25,100  Level Kansas City Center
Sat 07:34:57 PM 36.9950 -92.3631 51° Northeast 268 308 25,100  Level Kansas City Center
Sat 07:35:58 PM 37.0425 -92.2903 51° Northeast 269 310 25,100  Level Kansas City Center
Sat 07:37:01 PM 37.0892 -92.2172 51° Northeast 268 308 25,100  Level Kansas City Center
Sat 07:38:00 PM 37.1358 -92.1447 51° Northeast 268 308 25,100  Level Kansas City Center
Sat 07:39:03 PM 37.1825 -92.0700 52° Northeast 270 311 25,100  Level Kansas City Center
Sat 07:40:05 PM 37.2300 -91.9986 50° Northeast 268 308 25,100  Level Kansas City Center
Sat 07:41:06 PM 37.2761 -91.9258 51° Northeast 267 307 25,100  Level Kansas City Center
Sat 07:42:07 PM 37.3231 -91.8531 51° Northeast 268 308 25,100  Level Kansas City Center
Sat 07:43:10 PM 37.3783 -91.7642 52° Northeast 268 308 25,100  Level Kansas City Center
Sat 07:44:11 PM 37.4256 -91.6917 51° Northeast 269 310 25,100  Level Kansas City Center
Sat 07:45:12 PM 37.4708 -91.6203 51° Northeast 264 304 25,100  Level Kansas City Center
Sat 07:46:13 PM 37.5175 -91.5458 52° Northeast 268 308 25,100  Level Kansas City Center
Sat 07:47:16 PM 37.5631 -91.4739 51° Northeast 265 305 25,100  Level Kansas City Center
Sat 07:48:18 PM 37.6086 -91.4008 52° Northeast 265 305 25,100  Level Kansas City Center
Sat 07:49:19 PM 37.6528 -91.3289 52° Northeast 262 302 25,100  Level Kansas City Center
Sat 07:50:20 PM 37.6981 -91.2569 51° Northeast 261 300 25,100  Level Kansas City Center
Sat 07:51:21 PM 37.7528 -91.1703 51° Northeast 262 302 25,100  Level Kansas City Center
Sat 07:52:23 PM 37.7997 -91.0981 51° Northeast 264 304 25,100  Level Kansas City Center
Sat 07:53:24 PM 37.8369 -91.0347 53° Northeast 264 304 25,100  Level Kansas City Center
Sat 07:54:25 PM 37.8825 -90.9619 52° Northeast 264 304 25,100  Level Kansas City Center
Sat 07:55:28 PM 37.9372 -90.8758 51° Northeast 263 303 25,100  Level Kansas City Center
Sat 07:56:29 PM 37.9828 -90.8022 52° Northeast 264 304 25,100  Level Kansas City Center
Sat 07:57:30 PM 38.0272 -90.7289 52° Northeast 264 304 25,100  Level Kansas City Center
Sat 07:58:31 PM 38.0722 -90.6542 53° Northeast 266 306 25,100  Level Kansas City Center
Sat 07:59:37 PM 38.1189 -90.5819 51° Northeast 265 305 25,100  Level Kansas City Center
Sat 08:00:38 PM 38.1711 -90.4911 54° Northeast 266 306 25,100  Level Kansas City Center
Sat 08:01:40 PM 38.2164 -90.4183 52° Northeast 265 305 25,100  Level Kansas City Center
Sat 08:02:42 PM 38.2614 -90.3439 52° Northeast 266 306 25,100  Level Kansas City Center
Sat 08:03:42 PM 38.3069 -90.2700 52° Northeast 267 307 25,100  Level Kansas City Center
Sat 08:04:44 PM 38.3508 -90.1961 53° Northeast 266 306 25,100  Level Kansas City Center
Sat 08:05:45 PM 38.3947 -90.1222 53° Northeast 264 304 25,100  Level Kansas City Center
Sat 08:06:46 PM 38.4386 -90.0494 52° Northeast 263 303 25,100  Level Kansas City Center
Sat 08:07:50 PM 38.4917 -89.9617 52° Northeast 262 302 25,100 -290 Level Kansas City Center
Sat 08:08:50 PM 38.5317 -89.8836 57° Northeast 283 326 24,500 -545 Descending Kansas City Center
Sat 08:09:51 PM 38.5708 -89.7969 60° Northeast 292 336 24,000 -992 Descending Kansas City Center
Sat 08:10:51 PM 38.6317 -89.7306 40° Northeast 289 333 22,500 -1,742 Descending Kansas City Center
Sat 08:11:55 PM 38.7025 -89.6458 43° Northeast 298 343 20,400 -1,824 Descending Kansas City Center
Sat 08:12:56 PM 38.7464 -89.5558 58° Northeast 296 341 18,700 -1,512 Descending Kansas City Center
Sat 08:13:58 PM 38.7842 -89.4644 62° Northeast 292 336 17,300 -732 Descending Kansas City Center
Sat 08:14:59 PM 38.8294 -89.3886 53° Northeast 269 310 17,200 -49 Descending Kansas City Center
Sat 08:16:01 PM 38.8828 -89.3106 49° Northeast 270 311 17,200 -344 Level Kansas City Center
Sat 08:17:01 PM 38.9242 -89.2261 58° Northeast 280 322 16,500 -1,033 Descending Kansas City Center
Sat 08:18:03 PM 38.9772 -89.1519 47° Northeast 281 323 15,100 -1,415 Descending Kansas City Center
Sat 08:19:04 PM 39.0261 -89.0625 55° Northeast 283 326 13,600 -1,403 Descending Kansas City Center
Sat 08:20:07 PM 39.0569 -88.9728 66° East 276 318 12,200 -1,104 Descending Kansas City Center
Sat 08:21:09 PM 39.0997 -88.9100 49° Northeast 269 310 11,300 -1,073 Descending Kansas City Center
Sat 08:22:10 PM 39.1589 -88.8528 37° Northeast 266 306 10,000 -1,250 Descending Kansas City Center
Sat 08:23:09 PM 39.2031 -88.7561 59° Northeast 260 299 8,800 -1,073 Descending Kansas City Center
Sat 08:24:13 PM 39.2439 -88.6803 55° Northeast 259 298 7,800 -1,008 Descending Kansas City Center
Sat 08:25:14 PM 39.2903 -88.6128 48° Northeast 260 299 6,700 -878 Descending Kansas City Center
Sat 08:26:16 PM 39.3272 -88.5383 57° Northeast 260 299 6,000 -1,415 Descending Kansas City Center
Sat 08:27:17 PM 39.3689 -88.4700 52° Northeast 248 285 3,800 -1,230 Descending Kansas City Center
Sat 08:28:18 PM 39.4000 -88.3881 64° Northeast 238 274 3,500 -295 Descending Kansas City Center
Sat 08:30:00 PM 39.4667 -88.2667 67° East  Level FlightAware Approximate

Login

Don't have an account? Register now (free) for customized features, flight alerts, and more!